createdAt,value
2019-01-21T00:00:16.325Z,1016.21
2019-01-21T00:00:42.819Z,1016.22
2019-01-21T00:01:09.013Z,1016.24
2019-01-21T00:01:35.119Z,1016.21
2019-01-21T00:02:01.230Z,1016.23
2019-01-21T00:02:27.359Z,1016.21
2019-01-21T00:02:53.484Z,1016.2
2019-01-21T00:03:20.140Z,1016.22
2019-01-21T00:03:46.247Z,1016.23
2019-01-21T00:04:12.376Z,1016.22
2019-01-21T00:04:38.474Z,1016.18
2019-01-21T00:05:04.577Z,1016.24
2019-01-21T00:05:30.673Z,1016.22
2019-01-21T00:05:56.780Z,1016.25
2019-01-21T00:06:22.887Z,1016.24
2019-01-21T00:06:48.987Z,1016.21
2019-01-21T00:07:15.093Z,1016.22
2019-01-21T00:07:41.195Z,1016.21
2019-01-21T00:08:07.293Z,1016.2
2019-01-21T00:08:33.426Z,1016.21
2019-01-21T00:08:59.530Z,1016.22
2019-01-21T00:09:25.628Z,1016.2
2019-01-21T00:09:51.734Z,1016.24
2019-01-21T00:10:17.833Z,1016.22
2019-01-21T00:10:43.967Z,1016.26
2019-01-21T00:11:10.080Z,1016.25
2019-01-21T00:11:36.187Z,1016.27
2019-01-21T00:12:02.281Z,1016.27
2019-01-21T00:12:28.373Z,1016.22
2019-01-21T00:12:54.459Z,1016.26
2019-01-21T00:13:20.552Z,1016.28
2019-01-21T00:13:46.640Z,1016.21
2019-01-21T00:14:12.727Z,1016.22
2019-01-21T00:14:38.818Z,1016.23
2019-01-21T00:15:04.904Z,1016.21
2019-01-21T00:15:30.991Z,1016.24
2019-01-21T00:15:57.202Z,1016.24
2019-01-21T00:16:23.287Z,1016.22
2019-01-21T00:16:49.372Z,1016.22
2019-01-21T00:17:22.154Z,1016.25
2019-01-21T00:17:42.601Z,1016.28
2019-01-21T00:18:08.691Z,1016.22
2019-01-21T00:18:34.792Z,1016.27
2019-01-21T00:19:00.893Z,1016.29
2019-01-21T00:19:26.996Z,1016.27
2019-01-21T00:19:53.091Z,1016.28
2019-01-21T00:20:19.196Z,1016.29
2019-01-21T00:20:45.293Z,1016.25
2019-01-21T00:21:11.436Z,1016.24
2019-01-21T00:21:37.566Z,1016.24
2019-01-21T00:22:03.667Z,1016.27
2019-01-21T00:22:29.771Z,1016.29
2019-01-21T00:22:55.866Z,1016.25
2019-01-21T00:23:21.995Z,1016.28
2019-01-21T00:23:48.095Z,1016.29
2019-01-21T00:24:14.204Z,1016.3
2019-01-21T00:24:40.308Z,1016.28
2019-01-21T00:25:06.420Z,1016.31
2019-01-21T00:25:32.549Z,1016.32
2019-01-21T00:25:58.635Z,1016.29
2019-01-21T00:26:24.742Z,1016.3
2019-01-21T00:26:50.844Z,1016.32
2019-01-21T00:27:16.950Z,1016.31
2019-01-21T00:27:43.053Z,1016.34
2019-01-21T00:28:09.172Z,1016.32
2019-01-21T00:28:35.852Z,1016.35
2019-01-21T00:29:01.956Z,1016.34
2019-01-21T00:29:28.053Z,1016.33
2019-01-21T00:29:54.209Z,1016.3
2019-01-21T00:30:20.314Z,1016.3
2019-01-21T00:30:46.417Z,1016.28
2019-01-21T00:31:12.515Z,1016.3
2019-01-21T00:31:38.616Z,1016.28
2019-01-21T00:32:04.749Z,1016.28
2019-01-21T00:32:30.856Z,1016.29
2019-01-21T00:32:56.955Z,1016.26
2019-01-21T00:33:23.063Z,1016.3
2019-01-21T00:33:49.192Z,1016.31
2019-01-21T00:34:15.299Z,1016.26
2019-01-21T00:34:41.393Z,1016.32
2019-01-21T00:35:07.501Z,1016.3
2019-01-21T00:35:33.603Z,1016.3
2019-01-21T00:35:59.709Z,1016.33
2019-01-21T00:36:25.814Z,1016.29
2019-01-21T00:36:51.916Z,1016.29
2019-01-21T00:37:19.040Z,1016.33
2019-01-21T00:37:45.132Z,1016.31
2019-01-21T00:38:11.234Z,1016.3
2019-01-21T00:38:37.339Z,1016.32
2019-01-21T00:39:03.447Z,1016.37
2019-01-21T00:39:29.542Z,1016.31
2019-01-21T00:39:55.676Z,1016.36
2019-01-21T00:40:21.771Z,1016.38
2019-01-21T00:40:47.874Z,1016.4
2019-01-21T00:41:13.979Z,1016.4
2019-01-21T00:41:40.081Z,1016.41
2019-01-21T00:42:06.181Z,1016.37
2019-01-21T00:42:32.288Z,1016.42
2019-01-21T00:42:58.385Z,1016.41
2019-01-21T00:43:24.490Z,1016.45
2019-01-21T00:43:50.592Z,1016.45
2019-01-21T00:44:16.693Z,1016.45
2019-01-21T00:44:42.795Z,1016.44
2019-01-21T00:45:08.924Z,1016.44
2019-01-21T00:45:35.025Z,1016.44
2019-01-21T00:46:01.127Z,1016.45
2019-01-21T00:46:27.258Z,1016.41
2019-01-21T00:46:53.357Z,1016.47
2019-01-21T00:47:19.461Z,1016.48
2019-01-21T00:47:46.553Z,1016.44
2019-01-21T00:48:12.651Z,1016.42
2019-01-21T00:48:38.759Z,1016.4
2019-01-21T00:49:04.873Z,1016.4
2019-01-21T00:49:30.970Z,1016.38
2019-01-21T00:49:57.129Z,1016.39
2019-01-21T00:50:23.264Z,1016.39
2019-01-21T00:50:49.371Z,1016.38
2019-01-21T00:51:15.496Z,1016.36
2019-01-21T00:51:41.600Z,1016.34
2019-01-21T00:52:07.731Z,1016.35
2019-01-21T00:52:33.838Z,1016.35
2019-01-21T00:52:59.926Z,1016.36
2019-01-21T00:53:26.059Z,1016.32
2019-01-21T00:53:52.162Z,1016.34
2019-01-21T00:54:18.271Z,1016.33
2019-01-21T00:54:44.372Z,1016.32
2019-01-21T00:55:11.473Z,1016.36
2019-01-21T00:55:37.572Z,1016.35
2019-01-21T00:56:03.683Z,1016.3
2019-01-21T00:56:29.814Z,1016.33
2019-01-21T00:56:55.915Z,1016.34
2019-01-21T00:57:22.019Z,1016.3
2019-01-21T00:57:48.128Z,1016.34
2019-01-21T00:58:14.226Z,1016.3
2019-01-21T00:58:40.326Z,1016.32
2019-01-21T00:59:06.431Z,1016.29
2019-01-21T00:59:32.539Z,1016.31
2019-01-21T00:59:58.634Z,1016.34
2019-01-21T01:00:24.737Z,1016.32
2019-01-21T01:00:51.063Z,1016.34
2019-01-21T01:01:17.162Z,1016.32
2019-01-21T01:01:43.269Z,1016.33
2019-01-21T01:02:09.365Z,1016.34
2019-01-21T01:02:35.474Z,1016.37
2019-01-21T01:03:01.583Z,1016.35
2019-01-21T01:03:27.685Z,1016.36
2019-01-21T01:03:53.782Z,1016.35
2019-01-21T01:04:19.924Z,1016.36
2019-01-21T01:04:46.018Z,1016.34
2019-01-21T01:05:12.123Z,1016.32
2019-01-21T01:05:38.225Z,1016.35
2019-01-21T01:06:04.328Z,1016.34
2019-01-21T01:06:30.424Z,1016.32
2019-01-21T01:06:56.522Z,1016.35
2019-01-21T01:07:22.656Z,1016.34
2019-01-21T01:07:48.781Z,1016.37
2019-01-21T01:08:14.910Z,1016.35
2019-01-21T01:08:41.042Z,1016.37
2019-01-21T01:09:07.143Z,1016.37
2019-01-21T01:09:33.241Z,1016.36
2019-01-21T01:09:59.340Z,1016.4
2019-01-21T01:10:25.444Z,1016.37
2019-01-21T01:10:51.552Z,1016.37
2019-01-21T01:11:17.652Z,1016.37
2019-01-21T01:11:43.759Z,1016.4
2019-01-21T01:12:09.870Z,1016.42
2019-01-21T01:12:35.997Z,1016.39
2019-01-21T01:13:02.095Z,1016.4
2019-01-21T01:13:28.222Z,1016.42
2019-01-21T01:13:54.352Z,1016.4
2019-01-21T01:14:20.463Z,1016.45
2019-01-21T01:14:46.558Z,1016.43
2019-01-21T01:15:12.665Z,1016.42
2019-01-21T01:15:38.789Z,1016.41
2019-01-21T01:16:04.914Z,1016.45
2019-01-21T01:16:31.016Z,1016.45
2019-01-21T01:16:57.119Z,1016.47
2019-01-21T01:17:23.219Z,1016.43
2019-01-21T01:17:50.340Z,1016.45
2019-01-21T01:18:16.439Z,1016.43
2019-01-21T01:18:42.549Z,1016.45
2019-01-21T01:19:08.651Z,1016.46
2019-01-21T01:19:34.752Z,1016.47
2019-01-21T01:20:00.855Z,1016.47
2019-01-21T01:20:26.992Z,1016.44
2019-01-21T01:20:53.089Z,1016.45
2019-01-21T01:21:19.187Z,1016.46
2019-01-21T01:21:45.325Z,1016.45
2019-01-21T01:22:11.402Z,1016.47
2019-01-21T01:22:37.533Z,1016.45
2019-01-21T01:23:03.637Z,1016.44
2019-01-21T01:23:29.738Z,1016.46
2019-01-21T01:23:55.838Z,1016.49
2019-01-21T01:24:21.948Z,1016.44
2019-01-21T01:24:48.078Z,1016.45
2019-01-21T01:25:14.206Z,1016.46
2019-01-21T01:25:40.308Z,1016.49
2019-01-21T01:26:06.442Z,1016.48
2019-01-21T01:26:32.549Z,1016.46
2019-01-21T01:26:58.670Z,1016.47
2019-01-21T01:27:24.773Z,1016.5
2019-01-21T01:27:50.877Z,1016.48
2019-01-21T01:28:16.976Z,1016.51
2019-01-21T01:28:43.106Z,1016.51
2019-01-21T01:29:09.204Z,1016.5
2019-01-21T01:29:35.334Z,1016.47
2019-01-21T01:30:01.456Z,1016.48
2019-01-21T01:30:27.558Z,1016.51
2019-01-21T01:30:53.657Z,1016.5
2019-01-21T01:31:19.764Z,1016.51
2019-01-21T01:31:45.867Z,1016.51
2019-01-21T01:32:11.963Z,1016.5
2019-01-21T01:32:38.054Z,1016.48
2019-01-21T01:33:04.171Z,1016.51
2019-01-21T01:33:30.290Z,1016.5
2019-01-21T01:33:56.378Z,1016.54
2019-01-21T01:34:22.462Z,1016.53
2019-01-21T01:34:48.578Z,1016.51
2019-01-21T01:35:14.674Z,1016.54
2019-01-21T01:35:40.760Z,1016.51
2019-01-21T01:36:06.848Z,1016.53
2019-01-21T01:36:32.936Z,1016.53
2019-01-21T01:36:59.031Z,1016.51
2019-01-21T01:37:25.118Z,1016.54
2019-01-21T01:37:51.215Z,1016.57
2019-01-21T01:38:17.312Z,1016.51
2019-01-21T01:38:43.414Z,1016.53
2019-01-21T01:39:09.510Z,1016.53
2019-01-21T01:39:35.618Z,1016.54
2019-01-21T01:40:01.707Z,1016.52
2019-01-21T01:40:27.812Z,1016.58
2019-01-21T01:40:53.917Z,1016.55
2019-01-21T01:41:20.026Z,1016.57
2019-01-21T01:41:46.124Z,1016.58
2019-01-21T01:42:12.726Z,1016.6
2019-01-21T01:42:38.839Z,1016.59
2019-01-21T01:43:04.941Z,1016.6
2019-01-21T01:43:31.133Z,1016.58
2019-01-21T01:43:57.236Z,1016.62
2019-01-21T01:44:23.636Z,1016.6
2019-01-21T01:44:49.769Z,1016.58
2019-01-21T01:45:15.875Z,1016.59
2019-01-21T01:45:42.311Z,1016.58
2019-01-21T01:46:08.412Z,1016.62
2019-01-21T01:46:34.740Z,1016.62
2019-01-21T01:47:00.843Z,1016.6
2019-01-21T01:47:26.946Z,1016.65
2019-01-21T01:47:55.034Z,1016.69
2019-01-21T01:48:21.133Z,1016.7
2019-01-21T01:48:47.233Z,1016.68
2019-01-21T01:49:13.539Z,1016.65
2019-01-21T01:49:39.645Z,1016.66
2019-01-21T01:50:06.000Z,1016.68
2019-01-21T01:50:32.112Z,1016.71
2019-01-21T01:50:58.212Z,1016.68
2019-01-21T01:51:24.482Z,1016.69
2019-01-21T01:51:50.590Z,1016.68
2019-01-21T01:52:16.907Z,1016.68
2019-01-21T01:52:43.007Z,1016.72
2019-01-21T01:53:09.099Z,1016.72
2019-01-21T01:53:35.340Z,1016.73
2019-01-21T01:54:01.450Z,1016.76
2019-01-21T01:54:27.580Z,1016.77
2019-01-21T01:54:53.919Z,1016.72
2019-01-21T01:55:20.018Z,1016.75
2019-01-21T01:55:46.211Z,1016.72
2019-01-21T01:56:12.358Z,1016.76
2019-01-21T01:56:38.464Z,1016.75
2019-01-21T01:57:04.747Z,1016.76
2019-01-21T01:57:30.852Z,1016.75
2019-01-21T01:57:57.021Z,1016.72
2019-01-21T01:58:23.127Z,1016.74
2019-01-21T01:58:49.234Z,1016.76
2019-01-21T01:59:15.457Z,1016.75
2019-01-21T01:59:41.562Z,1016.74
2019-01-21T02:00:07.664Z,1016.73
2019-01-21T02:00:33.895Z,1016.72
2019-01-21T02:00:59.999Z,1016.76
2019-01-21T02:01:26.275Z,1016.74
2019-01-21T02:01:52.399Z,1016.73
2019-01-21T02:02:18.497Z,1016.75
2019-01-21T02:02:44.790Z,1016.72
2019-01-21T02:03:10.895Z,1016.73
2019-01-21T02:03:37.219Z,1016.72
2019-01-21T02:04:03.325Z,1016.73
2019-01-21T02:04:29.433Z,1016.71
2019-01-21T02:04:55.826Z,1016.73
2019-01-21T02:05:21.934Z,1016.7
2019-01-21T02:05:48.461Z,1016.76
2019-01-21T02:06:14.689Z,1016.73
2019-01-21T02:06:40.793Z,1016.74
2019-01-21T02:07:07.344Z,1016.74
2019-01-21T02:07:33.444Z,1016.72
2019-01-21T02:07:59.551Z,1016.71
2019-01-21T02:08:25.884Z,1016.72
2019-01-21T02:08:51.990Z,1016.69
2019-01-21T02:09:18.461Z,1016.69
2019-01-21T02:09:44.566Z,1016.7
2019-01-21T02:10:10.669Z,1016.68
2019-01-21T02:10:37.043Z,1016.69
2019-01-21T02:11:03.152Z,1016.7
2019-01-21T02:11:29.299Z,1016.73
2019-01-21T02:11:55.396Z,1016.74
2019-01-21T02:12:21.501Z,1016.72
2019-01-21T02:12:47.854Z,1016.72
2019-01-21T02:13:13.953Z,1016.69
2019-01-21T02:13:40.058Z,1016.68
2019-01-21T02:14:06.429Z,1016.73
2019-01-21T02:14:32.569Z,1016.74
2019-01-21T02:14:59.001Z,1016.75
2019-01-21T02:15:25.100Z,1016.73
2019-01-21T02:15:51.204Z,1016.76
2019-01-21T02:16:17.655Z,1016.74
2019-01-21T02:16:43.754Z,1016.75
2019-01-21T02:17:10.136Z,1016.74
2019-01-21T02:17:36.268Z,1016.75
2019-01-21T02:18:03.363Z,1016.76
2019-01-21T02:18:29.496Z,1016.75
2019-01-21T02:18:55.613Z,1016.74
2019-01-21T02:19:21.720Z,1016.74
2019-01-21T02:19:47.845Z,1016.72
2019-01-21T02:20:13.976Z,1016.74
2019-01-21T02:20:40.438Z,1016.72
2019-01-21T02:21:06.547Z,1016.73
2019-01-21T02:21:32.642Z,1016.75
2019-01-21T02:21:59.100Z,1016.74
2019-01-21T02:22:25.197Z,1016.76
2019-01-21T02:22:51.602Z,1016.76
2019-01-21T02:23:17.698Z,1016.73
2019-01-21T02:23:43.811Z,1016.74
2019-01-21T02:24:10.203Z,1016.71
2019-01-21T02:24:36.333Z,1016.72
2019-01-21T02:25:02.443Z,1016.73
2019-01-21T02:25:28.757Z,1016.73
2019-01-21T02:25:54.859Z,1016.71
2019-01-21T02:26:21.173Z,1016.72
2019-01-21T02:26:47.282Z,1016.73
2019-01-21T02:27:13.378Z,1016.72
2019-01-21T02:27:39.756Z,1016.74
2019-01-21T02:28:05.853Z,1016.71
2019-01-21T02:28:32.220Z,1016.71
2019-01-21T02:28:58.344Z,1016.72
2019-01-21T02:29:24.453Z,1016.71
2019-01-21T02:29:50.771Z,1016.73
2019-01-21T02:30:16.911Z,1016.71
2019-01-21T02:30:43.013Z,1016.71
2019-01-21T02:31:09.363Z,1016.69
2019-01-21T02:31:35.474Z,1016.63
2019-01-21T02:32:01.623Z,1016.64
2019-01-21T02:32:27.760Z,1016.64
2019-01-21T02:32:53.887Z,1016.66
2019-01-21T02:33:20.413Z,1016.64
2019-01-21T02:33:46.509Z,1016.62
2019-01-21T02:34:13.027Z,1016.63
2019-01-21T02:34:39.128Z,1016.6
2019-01-21T02:35:05.299Z,1016.62
2019-01-21T02:35:31.709Z,1016.55
2019-01-21T02:35:57.838Z,1016.61
2019-01-21T02:36:24.074Z,1016.59
2019-01-21T02:36:50.181Z,1016.59
2019-01-21T02:37:16.334Z,1016.59
2019-01-21T02:37:42.637Z,1016.6
2019-01-21T02:38:08.748Z,1016.58
2019-01-21T02:38:34.841Z,1016.57
2019-01-21T02:39:01.227Z,1016.57
2019-01-21T02:39:27.329Z,1016.56
2019-01-21T02:39:53.691Z,1016.55
2019-01-21T02:40:19.791Z,1016.58
2019-01-21T02:40:45.886Z,1016.59
2019-01-21T02:41:12.048Z,1016.55
2019-01-21T02:41:38.148Z,1016.57
2019-01-21T02:42:04.532Z,1016.57
2019-01-21T02:42:30.659Z,1016.58
2019-01-21T02:42:56.764Z,1016.55
2019-01-21T02:43:23.155Z,1016.59
2019-01-21T02:43:49.262Z,1016.59
2019-01-21T02:44:15.374Z,1016.57
2019-01-21T02:44:41.524Z,1016.59
2019-01-21T02:45:07.634Z,1016.6
2019-01-21T02:45:33.998Z,1016.6
2019-01-21T02:46:00.116Z,1016.57
2019-01-21T02:46:26.268Z,1016.61
2019-01-21T02:46:52.421Z,1016.57
2019-01-21T02:47:18.519Z,1016.61
2019-01-21T02:47:44.867Z,1016.6
2019-01-21T02:48:11.965Z,1016.56
2019-01-21T02:48:38.067Z,1016.58
2019-01-21T02:49:04.451Z,1016.57
2019-01-21T02:49:30.577Z,1016.58
2019-01-21T02:49:56.710Z,1016.53
2019-01-21T02:50:23.103Z,1016.58
2019-01-21T02:50:49.228Z,1016.56
2019-01-21T02:51:15.628Z,1016.6
2019-01-21T02:51:41.754Z,1016.58
2019-01-21T02:52:07.881Z,1016.57
2019-01-21T02:52:34.187Z,1016.52
2019-01-21T02:53:00.290Z,1016.58
2019-01-21T02:53:26.591Z,1016.54
2019-01-21T02:53:52.694Z,1016.56
2019-01-21T02:54:18.825Z,1016.53
2019-01-21T02:54:45.079Z,1016.53
2019-01-21T02:55:11.180Z,1016.52
2019-01-21T02:55:37.283Z,1016.54
2019-01-21T02:56:03.497Z,1016.55
2019-01-21T02:56:29.585Z,1016.57
2019-01-21T02:56:55.905Z,1016.56
2019-01-21T02:57:22.007Z,1016.54
2019-01-21T02:57:48.167Z,1016.58
2019-01-21T02:58:14.376Z,1016.57
2019-01-21T02:58:40.476Z,1016.6
2019-01-21T02:59:06.766Z,1016.59
2019-01-21T02:59:32.866Z,1016.61
2019-01-21T02:59:58.972Z,1016.57
2019-01-21T03:00:25.239Z,1016.58
2019-01-21T03:00:51.369Z,1016.58
2019-01-21T03:01:17.671Z,1016.56
2019-01-21T03:01:43.906Z,1016.59
2019-01-21T03:02:10.123Z,1016.55
2019-01-21T03:02:36.535Z,1016.58
2019-01-21T03:03:02.668Z,1016.54
2019-01-21T03:03:28.797Z,1016.57
2019-01-21T03:03:55.352Z,1016.56
2019-01-21T03:04:21.475Z,1016.57
2019-01-21T03:04:47.823Z,1016.54
2019-01-21T03:05:13.950Z,1016.52
2019-01-21T03:05:40.064Z,1016.52
2019-01-21T03:06:06.240Z,1016.52
2019-01-21T03:06:32.326Z,1016.55
2019-01-21T03:06:58.680Z,1016.51
2019-01-21T03:07:24.766Z,1016.52
2019-01-21T03:07:50.906Z,1016.5
2019-01-21T03:08:17.214Z,1016.48
2019-01-21T03:08:43.336Z,1016.5
2019-01-21T03:09:09.439Z,1016.5
2019-01-21T03:09:35.836Z,1016.48
2019-01-21T03:10:01.933Z,1016.49
2019-01-21T03:10:28.246Z,1016.51
2019-01-21T03:10:54.347Z,1016.5
2019-01-21T03:11:20.450Z,1016.51
2019-01-21T03:11:46.845Z,1016.47
2019-01-21T03:12:12.954Z,1016.52
2019-01-21T03:12:39.271Z,1016.48
2019-01-21T03:13:05.407Z,1016.48
2019-01-21T03:13:31.533Z,1016.51
2019-01-21T03:13:57.876Z,1016.44
2019-01-21T03:14:23.983Z,1016.49
2019-01-21T03:14:50.092Z,1016.51
2019-01-21T03:15:16.530Z,1016.46
2019-01-21T03:15:42.663Z,1016.46
2019-01-21T03:16:09.064Z,1016.49
2019-01-21T03:16:35.162Z,1016.48
2019-01-21T03:17:01.272Z,1016.48
2019-01-21T03:17:27.586Z,1016.48
2019-01-21T03:17:53.772Z,1016.48
2019-01-21T03:18:21.132Z,1016.48
2019-01-21T03:18:48.227Z,1016.51
2019-01-21T03:19:14.333Z,1016.48
2019-01-21T03:19:40.492Z,1016.5
2019-01-21T03:20:06.682Z,1016.48
2019-01-21T03:20:32.832Z,1016.5
2019-01-21T03:20:59.034Z,1016.49
2019-01-21T03:21:25.163Z,1016.46
2019-01-21T03:21:51.492Z,1016.5
2019-01-21T03:22:17.602Z,1016.51
2019-01-21T03:22:43.698Z,1016.49
2019-01-21T03:23:10.112Z,1016.5
2019-01-21T03:23:36.246Z,1016.48
2019-01-21T03:24:02.376Z,1016.52
2019-01-21T03:24:28.543Z,1016.5
2019-01-21T03:24:54.634Z,1016.48
2019-01-21T03:25:21.123Z,1016.48
2019-01-21T03:25:47.226Z,1016.48
2019-01-21T03:26:13.350Z,1016.44
2019-01-21T03:26:39.608Z,1016.45
2019-01-21T03:27:05.712Z,1016.43
2019-01-21T03:27:32.203Z,1016.46
2019-01-21T03:27:58.337Z,1016.41
2019-01-21T03:28:24.467Z,1016.47
2019-01-21T03:28:50.881Z,1016.46
2019-01-21T03:29:17.010Z,1016.47
2019-01-21T03:29:43.428Z,1016.45
2019-01-21T03:30:09.526Z,1016.48
2019-01-21T03:30:35.655Z,1016.49
2019-01-21T03:31:01.812Z,1016.48
2019-01-21T03:31:27.939Z,1016.51
2019-01-21T03:31:54.059Z,1016.5
2019-01-21T03:32:20.336Z,1016.52
2019-01-21T03:32:46.502Z,1016.51
2019-01-21T03:33:13.003Z,1016.47
2019-01-21T03:33:39.085Z,1016.52
2019-01-21T03:34:05.234Z,1016.53
2019-01-21T03:34:31.568Z,1016.55
2019-01-21T03:34:57.733Z,1016.49
2019-01-21T03:35:24.130Z,1016.51
2019-01-21T03:35:50.313Z,1016.51
2019-01-21T03:36:16.511Z,1016.5
2019-01-21T03:36:42.950Z,1016.5
2019-01-21T03:37:09.087Z,1016.52
2019-01-21T03:37:35.409Z,1016.49
2019-01-21T03:38:01.517Z,1016.49
2019-01-21T03:38:27.620Z,1016.52
2019-01-21T03:38:54.013Z,1016.52
2019-01-21T03:39:20.138Z,1016.5
2019-01-21T03:39:46.261Z,1016.54
2019-01-21T03:40:12.553Z,1016.47
2019-01-21T03:40:38.658Z,1016.51
2019-01-21T03:41:05.002Z,1016.52
2019-01-21T03:41:31.122Z,1016.48
2019-01-21T03:41:57.269Z,1016.47
2019-01-21T03:42:23.393Z,1016.47
2019-01-21T03:42:49.536Z,1016.46
2019-01-21T03:43:15.921Z,1016.46
2019-01-21T03:43:42.055Z,1016.47
2019-01-21T03:44:08.162Z,1016.46
2019-01-21T03:44:34.294Z,1016.45
2019-01-21T03:45:00.662Z,1016.46
2019-01-21T03:45:26.575Z,1016.45
2019-01-21T03:45:53.006Z,1016.46
2019-01-21T03:46:19.114Z,1016.48
2019-01-21T03:46:45.555Z,1016.46
2019-01-21T03:47:11.659Z,1016.46
2019-01-21T03:47:37.799Z,1016.45
2019-01-21T03:48:04.145Z,1016.46
2019-01-21T03:48:31.252Z,1016.46
2019-01-21T03:48:57.562Z,1016.49
2019-01-21T03:49:23.666Z,1016.49
2019-01-21T03:49:49.793Z,1016.51
2019-01-21T03:50:15.913Z,1016.48
2019-01-21T03:50:42.048Z,1016.48
2019-01-21T03:51:08.148Z,1016.49
2019-01-21T03:51:34.509Z,1016.49
2019-01-21T03:52:00.614Z,1016.46
2019-01-21T03:52:26.878Z,1016.46
2019-01-21T03:52:53.013Z,1016.43
2019-01-21T03:53:19.115Z,1016.44
2019-01-21T03:53:45.516Z,1016.46
2019-01-21T03:54:11.654Z,1016.45
2019-01-21T03:54:37.913Z,1016.39
2019-01-21T03:55:04.018Z,1016.4
2019-01-21T03:55:30.150Z,1016.37
2019-01-21T03:55:56.425Z,1016.38
2019-01-21T03:56:22.568Z,1016.38
2019-01-21T03:56:48.666Z,1016.37
2019-01-21T03:57:14.987Z,1016.4
2019-01-21T03:57:41.087Z,1016.38
2019-01-21T03:58:07.390Z,1016.36
2019-01-21T03:58:33.529Z,1016.39
2019-01-21T03:58:59.665Z,1016.36
2019-01-21T03:59:25.952Z,1016.38
2019-01-21T03:59:52.089Z,1016.37
2019-01-21T04:00:18.222Z,1016.38
2019-01-21T04:00:44.347Z,1016.37
2019-01-21T04:01:10.449Z,1016.4
2019-01-21T04:01:36.680Z,1016.37
2019-01-21T04:02:02.790Z,1016.38
2019-01-21T04:02:28.886Z,1016.41
2019-01-21T04:02:55.231Z,1016.4
2019-01-21T04:03:21.333Z,1016.41
2019-01-21T04:03:47.651Z,1016.38
2019-01-21T04:04:13.757Z,1016.39
2019-01-21T04:04:39.885Z,1016.38
2019-01-21T04:05:06.340Z,1016.37
2019-01-21T04:05:32.480Z,1016.36
2019-01-21T04:05:58.909Z,1016.38
2019-01-21T04:06:25.012Z,1016.41
2019-01-21T04:06:51.149Z,1016.37
2019-01-21T04:07:17.590Z,1016.4
2019-01-21T04:07:43.695Z,1016.39
2019-01-21T04:08:10.039Z,1016.43
2019-01-21T04:08:36.268Z,1016.4
2019-01-21T04:09:02.374Z,1016.45
2019-01-21T04:09:28.710Z,1016.46
2019-01-21T04:09:54.844Z,1016.43
2019-01-21T04:10:21.220Z,1016.44
2019-01-21T04:10:47.590Z,1016.4
2019-01-21T04:11:13.725Z,1016.48
2019-01-21T04:11:40.081Z,1016.46
2019-01-21T04:12:06.184Z,1016.46
2019-01-21T04:12:32.288Z,1016.46
2019-01-21T04:12:58.611Z,1016.46
2019-01-21T04:13:24.721Z,1016.46
2019-01-21T04:13:51.094Z,1016.48
2019-01-21T04:14:17.201Z,1016.46
2019-01-21T04:14:43.300Z,1016.48
2019-01-21T04:15:09.614Z,1016.51
2019-01-21T04:15:35.746Z,1016.5
2019-01-21T04:16:01.849Z,1016.49
2019-01-21T04:16:28.220Z,1016.49
2019-01-21T04:16:54.326Z,1016.52
2019-01-21T04:17:20.709Z,1016.51
2019-01-21T04:17:46.837Z,1016.49
2019-01-21T04:18:13.024Z,1016.5
2019-01-21T04:18:40.481Z,1016.49
2019-01-21T04:19:06.644Z,1016.47
2019-01-21T04:19:33.033Z,1016.46
2019-01-21T04:19:59.133Z,1016.48
2019-01-21T04:20:25.242Z,1016.43
2019-01-21T04:20:52.508Z,1016.41
2019-01-21T04:21:18.612Z,1016.46
2019-01-21T04:21:44.738Z,1016.43
2019-01-21T04:22:11.099Z,1016.43
2019-01-21T04:22:37.228Z,1016.48
2019-01-21T04:23:03.577Z,1016.45
2019-01-21T04:23:29.741Z,1016.46
2019-01-21T04:23:55.855Z,1016.44
2019-01-21T04:24:22.147Z,1016.46
2019-01-21T04:24:48.254Z,1016.45
2019-01-21T04:25:14.574Z,1016.47
2019-01-21T04:25:40.706Z,1016.45
2019-01-21T04:26:06.835Z,1016.46
2019-01-21T04:26:33.115Z,1016.44
2019-01-21T04:26:59.218Z,1016.46
2019-01-21T04:27:25.318Z,1016.43
2019-01-21T04:27:51.674Z,1016.46
2019-01-21T04:28:17.778Z,1016.42
2019-01-21T04:28:44.095Z,1016.45
2019-01-21T04:29:10.194Z,1016.42
2019-01-21T04:29:36.305Z,1016.4
2019-01-21T04:30:02.572Z,1016.41
2019-01-21T04:30:28.708Z,1016.38
2019-01-21T04:30:54.919Z,1016.37
2019-01-21T04:31:21.024Z,1016.39
2019-01-21T04:31:47.429Z,1016.39
2019-01-21T04:32:14.162Z,1016.39
2019-01-21T04:32:40.266Z,1016.38
2019-01-21T04:33:06.387Z,1016.4
2019-01-21T04:33:32.646Z,1016.36
2019-01-21T04:33:58.750Z,1016.38
2019-01-21T04:34:25.128Z,1016.36
2019-01-21T04:34:51.224Z,1016.34
2019-01-21T04:35:17.320Z,1016.33
2019-01-21T04:35:43.639Z,1016.32
2019-01-21T04:36:09.745Z,1016.32
2019-01-21T04:36:35.872Z,1016.29
2019-01-21T04:37:01.978Z,1016.3
2019-01-21T04:37:28.100Z,1016.3
2019-01-21T04:37:55.222Z,1016.29
2019-01-21T04:38:21.348Z,1016.26
2019-01-21T04:38:47.640Z,1016.22
2019-01-21T04:39:13.772Z,1016.24
2019-01-21T04:39:39.877Z,1016.24
2019-01-21T04:40:06.226Z,1016.24
2019-01-21T04:40:32.354Z,1016.25
2019-01-21T04:40:58.459Z,1016.24
2019-01-21T04:41:24.787Z,1016.21
2019-01-21T04:41:50.893Z,1016.19
2019-01-21T04:42:17.387Z,1016.22
2019-01-21T04:42:43.502Z,1016.21
2019-01-21T04:43:09.635Z,1016.18
2019-01-21T04:43:36.080Z,1016.22
2019-01-21T04:44:02.214Z,1016.19
2019-01-21T04:44:28.669Z,1016.2
2019-01-21T04:44:54.802Z,1016.2
2019-01-21T04:45:20.935Z,1016.23
2019-01-21T04:45:47.236Z,1016.23
2019-01-21T04:46:13.366Z,1016.25
2019-01-21T04:46:40.123Z,1016.27
2019-01-21T04:47:06.454Z,1016.22
2019-01-21T04:47:32.582Z,1016.23
2019-01-21T04:47:58.905Z,1016.22
2019-01-21T04:48:32.708Z,1016.2
2019-01-21T04:48:52.139Z,1016.17
2019-01-21T04:49:18.444Z,1016.18
2019-01-21T04:49:44.583Z,1016.19
2019-01-21T04:50:10.874Z,1016.17
2019-01-21T04:50:36.976Z,1016.16
2019-01-21T04:51:03.141Z,1016.17
2019-01-21T04:51:29.449Z,1016.16
2019-01-21T04:51:55.581Z,1016.1
2019-01-21T04:52:21.682Z,1016.13
2019-01-21T04:52:49.616Z,1016.14
2019-01-21T04:53:15.104Z,1016.1
2019-01-21T04:53:41.556Z,1016.15
2019-01-21T04:54:07.663Z,1016.11
2019-01-21T04:54:33.757Z,1016.1
2019-01-21T04:55:00.330Z,1016.09
2019-01-21T04:55:26.421Z,1016.14
2019-01-21T04:55:52.783Z,1016.1
2019-01-21T04:56:18.891Z,1016.11
2019-01-21T04:56:45.002Z,1016.13
2019-01-21T04:57:11.470Z,1016.1
2019-01-21T04:57:37.575Z,1016.1
2019-01-21T04:58:03.695Z,1016.11
2019-01-21T04:58:29.829Z,1016.14
2019-01-21T04:58:55.950Z,1016.08
2019-01-21T04:59:22.409Z,1016.08
2019-01-21T04:59:48.573Z,1016.09
2019-01-21T05:00:14.671Z,1016.09
2019-01-21T05:00:41.076Z,1016.08
2019-01-21T05:01:07.175Z,1016.07
2019-01-21T05:01:33.538Z,1016.07
2019-01-21T05:01:59.670Z,1016.06
2019-01-21T05:02:25.805Z,1016.08
2019-01-21T05:02:52.144Z,1016.09
2019-01-21T05:03:18.252Z,1016.08
2019-01-21T05:03:44.374Z,1016.07
2019-01-21T05:04:10.951Z,1016.07
2019-01-21T05:04:37.108Z,1016.08
2019-01-21T05:05:03.577Z,1016.07
2019-01-21T05:05:29.684Z,1016.11
2019-01-21T05:05:55.778Z,1016.09
2019-01-21T05:06:22.118Z,1016.11
2019-01-21T05:06:48.221Z,1016.07
2019-01-21T05:07:14.623Z,1016.12
2019-01-21T05:07:40.742Z,1016.12
2019-01-21T05:08:06.861Z,1016.09
2019-01-21T05:08:33.173Z,1016.12
2019-01-21T05:08:59.285Z,1016.11
2019-01-21T05:09:25.650Z,1016.11
2019-01-21T05:09:51.755Z,1016.12
2019-01-21T05:10:17.861Z,1016.14
2019-01-21T05:10:44.131Z,1016.11
2019-01-21T05:11:10.225Z,1016.11
2019-01-21T05:11:36.383Z,1016.16
2019-01-21T05:12:02.820Z,1016.16
2019-01-21T05:12:28.980Z,1016.18
2019-01-21T05:12:55.326Z,1016.19
2019-01-21T05:13:21.457Z,1016.21
2019-01-21T05:13:47.590Z,1016.21
2019-01-21T05:14:13.980Z,1016.22
2019-01-21T05:14:40.083Z,1016.23
2019-01-21T05:15:06.454Z,1016.21
2019-01-21T05:15:32.561Z,1016.23
2019-01-21T05:15:58.656Z,1016.25
2019-01-21T05:16:24.781Z,1016.2
2019-01-21T05:16:50.944Z,1016.23
2019-01-21T05:17:17.048Z,1016.22
2019-01-21T05:17:43.428Z,1016.21
2019-01-21T05:18:09.529Z,1016.21